createdAt,value
2018-11-14T00:00:08.139Z,8.90
2018-11-14T00:05:07.514Z,8.92
2018-11-14T00:10:05.881Z,9.22
2018-11-14T00:15:03.410Z,9.10
2018-11-14T00:20:00.759Z,9.15
2018-11-14T00:24:58.119Z,9.11
2018-11-14T00:29:55.612Z,9.06
2018-11-14T00:35:03.707Z,8.80
2018-11-14T00:40:01.095Z,8.52
2018-11-14T00:44:58.477Z,8.43
2018-11-14T00:49:55.846Z,8.57
2018-11-14T00:54:53.210Z,8.38
2018-11-14T00:59:50.621Z,8.57
2018-11-14T01:04:52.800Z,8.05
2018-11-14T01:09:50.191Z,7.87
2018-11-14T01:14:47.579Z,7.91
2018-11-14T01:19:44.939Z,7.92
2018-11-14T01:24:42.327Z,8.05
2018-11-14T01:29:39.717Z,8.05
2018-11-14T01:34:40.130Z,8.28
2018-11-14T01:39:37.552Z,8.02
2018-11-14T01:44:34.901Z,8.23
2018-11-14T01:49:32.257Z,7.91
2018-11-14T01:54:29.602Z,8.25
2018-11-14T01:59:26.962Z,7.78
2018-11-14T02:09:35.003Z,7.67
2018-11-14T02:14:32.362Z,7.79
2018-11-14T02:19:29.819Z,7.87
2018-11-14T02:24:27.190Z,7.96
2018-11-14T02:29:24.590Z,8.00
2018-11-14T02:34:29.996Z,7.96
2018-11-14T02:39:27.418Z,7.92
2018-11-14T02:44:24.806Z,7.94
2018-11-14T02:49:22.179Z,8.03
2018-11-14T02:54:19.556Z,7.99
2018-11-14T02:59:16.937Z,8.02
2018-11-14T03:04:16.706Z,8.12
2018-11-14T03:09:14.075Z,8.14
2018-11-14T03:14:12.770Z,8.10
2018-11-14T03:19:10.219Z,8.04
2018-11-14T03:24:07.618Z,8.06
2018-11-14T03:29:05.159Z,8.03
2018-11-14T03:34:02.560Z,8.12
2018-11-14T03:38:59.967Z,8.19
2018-11-14T03:43:57.351Z,8.23
2018-11-14T03:48:54.788Z,8.30
2018-11-14T03:53:52.174Z,8.26
2018-11-14T03:58:49.583Z,8.11
2018-11-14T04:03:46.970Z,8.16
2018-11-14T04:08:44.326Z,8.14
2018-11-14T04:13:41.687Z,8.05
2018-11-14T04:18:39.062Z,7.90
2018-11-14T04:23:45.118Z,8.13
2018-11-14T04:28:42.531Z,7.63
2018-11-14T04:33:39.902Z,7.42
2018-11-14T04:38:37.259Z,7.27
2018-11-14T04:43:34.634Z,7.23
2018-11-14T04:48:32.003Z,6.97
2018-11-14T04:53:29.392Z,6.86
2018-11-14T04:58:26.742Z,6.69
2018-11-14T05:03:24.094Z,6.57
2018-11-14T05:08:21.471Z,6.50
2018-11-14T05:13:18.842Z,6.34
2018-11-14T05:18:16.230Z,6.21
2018-11-14T05:23:13.594Z,6.11
2018-11-14T05:28:10.999Z,6.11
2018-11-14T05:33:08.360Z,6.36
2018-11-14T05:38:05.787Z,6.42
2018-11-14T05:43:03.186Z,6.51
2018-11-14T05:48:00.558Z,5.93
2018-11-14T05:52:57.934Z,5.72
2018-11-14T05:57:55.302Z,6.06
2018-11-14T06:02:52.700Z,5.90
2018-11-14T06:07:50.086Z,5.75
2018-11-14T06:12:47.546Z,6.22
2018-11-14T06:17:45.759Z,5.95
2018-11-14T06:22:44.299Z,6.05
2018-11-14T06:27:41.746Z,6.07
2018-11-14T06:32:39.199Z,6.21
2018-11-14T06:37:36.915Z,6.17
2018-11-14T06:42:34.310Z,6.36
2018-11-14T06:47:31.703Z,6.49
2018-11-14T06:52:29.101Z,6.54
2018-11-14T06:57:26.506Z,6.33
2018-11-14T07:02:27.319Z,6.54
2018-11-14T07:07:21.289Z,6.44
2018-11-14T07:12:18.666Z,5.98
2018-11-14T07:17:16.301Z,6.53
2018-11-14T07:22:13.726Z,6.22
2018-11-14T07:27:11.125Z,6.58
2018-11-14T07:32:08.570Z,6.69
2018-11-14T07:37:05.962Z,6.66
2018-11-14T07:42:03.469Z,6.81
2018-11-14T07:47:00.892Z,6.88
2018-11-14T07:51:58.312Z,7.08
2018-11-14T07:56:55.706Z,7.14
2018-11-14T08:01:53.144Z,7.56
2018-11-14T08:06:50.563Z,7.81
2018-11-14T08:11:47.976Z,8.00
2018-11-14T08:16:45.419Z,8.36
2018-11-14T08:21:42.820Z,8.58
2018-11-14T08:26:40.185Z,8.80
2018-11-14T08:31:37.887Z,9.11
2018-11-14T08:36:35.286Z,9.21
2018-11-14T08:41:32.683Z,9.46
2018-11-14T08:46:30.110Z,9.63
2018-11-14T08:51:27.745Z,9.79
2018-11-14T08:56:25.168Z,9.95
2018-11-14T09:01:22.603Z,10.00
2018-11-14T09:06:20.155Z,10.08
2018-11-14T09:11:18.438Z,10.39
2018-11-14T09:16:15.885Z,10.40
2018-11-14T09:21:13.283Z,10.49
2018-11-14T09:26:10.709Z,10.60
2018-11-14T09:31:08.089Z,10.62
2018-11-14T09:36:05.487Z,10.98
2018-11-14T09:41:03.017Z,11.01
2018-11-14T09:46:01.599Z,11.16
2018-11-14T09:51:01.961Z,11.26
2018-11-14T09:56:01.167Z,11.52
2018-11-14T10:00:58.615Z,11.58
2018-11-14T10:11:10.859Z,11.93
2018-11-14T10:16:08.307Z,12.05
2018-11-14T10:21:05.991Z,12.04
2018-11-14T10:26:03.470Z,12.12
2018-11-14T10:31:00.971Z,12.17
2018-11-14T10:35:58.345Z,12.39
2018-11-14T10:40:55.880Z,12.60
2018-11-14T10:45:53.296Z,12.69
2018-11-14T10:50:50.753Z,12.82
2018-11-14T10:55:48.183Z,12.99
2018-11-14T11:00:52.010Z,12.84
2018-11-14T11:05:55.228Z,13.07
2018-11-14T11:10:58.167Z,13.06
2018-11-14T11:16:01.299Z,13.10
2018-11-14T11:20:58.887Z,13.15
2018-11-14T11:25:56.323Z,13.33
2018-11-14T11:30:53.747Z,13.27
2018-11-14T11:35:51.270Z,13.31
2018-11-14T11:40:48.722Z,13.42
2018-11-14T11:45:46.133Z,13.54
2018-11-14T11:50:43.556Z,13.66
2018-11-14T11:55:41.094Z,13.67
2018-11-14T12:00:38.742Z,13.62
2018-11-14T12:05:35.999Z,13.59
2018-11-14T12:10:33.432Z,13.70
2018-11-14T12:15:30.916Z,13.78
2018-11-14T12:20:28.350Z,13.74
2018-11-14T12:25:25.773Z,13.76
2018-11-14T12:30:23.314Z,13.44
2018-11-14T12:35:20.873Z,13.76
2018-11-14T12:40:18.299Z,13.85
2018-11-14T12:45:16.248Z,13.97
2018-11-14T12:50:14.155Z,13.83
2018-11-14T12:55:14.069Z,13.98
2018-11-14T13:00:13.052Z,13.91
2018-11-14T13:05:12.679Z,13.96
2018-11-14T13:10:12.346Z,13.94
2018-11-14T13:15:10.951Z,13.73
2018-11-14T13:20:11.352Z,13.60
2018-11-14T13:25:10.473Z,13.78
2018-11-14T13:30:09.894Z,13.77
2018-11-14T13:35:09.656Z,13.80
2018-11-14T13:40:07.811Z,13.75
2018-11-14T13:45:06.695Z,13.55
2018-11-14T13:50:05.070Z,13.49
2018-11-14T13:55:02.452Z,13.43
2018-11-14T13:59:59.861Z,13.52
2018-11-14T14:05:04.759Z,13.42
2018-11-14T14:10:02.515Z,13.22
2018-11-14T14:14:59.983Z,13.18
2018-11-14T14:19:57.356Z,13.13
2018-11-14T14:24:54.796Z,12.98
2018-11-14T14:29:52.216Z,13.02
2018-11-14T14:34:53.501Z,12.77
2018-11-14T14:39:50.916Z,12.61
2018-11-14T14:44:48.334Z,12.52
2018-11-14T14:49:45.767Z,12.24
2018-11-14T14:54:43.196Z,12.06
2018-11-14T14:59:40.635Z,11.93
2018-11-14T15:04:41.168Z,11.77
2018-11-14T15:09:38.733Z,11.50
2018-11-14T15:14:36.071Z,11.28
2018-11-14T15:19:33.512Z,10.96
2018-11-14T15:24:30.910Z,10.71
2018-11-14T15:29:28.353Z,10.65
2018-11-14T15:34:33.622Z,10.56
2018-11-14T15:39:31.113Z,10.47
2018-11-14T15:44:28.519Z,10.34
2018-11-14T15:49:25.939Z,10.27
2018-11-14T15:54:23.372Z,10.38
2018-11-14T15:59:20.805Z,10.55
2018-11-14T16:04:20.306Z,10.26
2018-11-14T16:09:17.794Z,10.22
2018-11-14T16:14:15.195Z,10.19
2018-11-14T16:19:12.617Z,10.11
2018-11-14T16:24:10.068Z,10.04
2018-11-14T16:29:07.487Z,9.92
2018-11-14T16:34:04.950Z,9.79
2018-11-14T16:39:02.492Z,9.66
2018-11-14T16:43:59.887Z,9.53
2018-11-14T16:48:57.284Z,9.42
2018-11-14T16:53:54.671Z,9.23
2018-11-14T16:58:52.064Z,9.09
2018-11-14T17:03:49.497Z,9.01
2018-11-14T17:08:46.864Z,8.87
2018-11-14T17:13:44.270Z,8.73
2018-11-14T17:18:41.680Z,8.58
2018-11-14T17:23:39.078Z,8.53
2018-11-14T17:28:36.486Z,8.40
2018-11-14T17:33:33.870Z,8.34
2018-11-14T17:38:31.263Z,8.22
2018-11-14T17:43:28.708Z,8.13
2018-11-14T17:48:34.616Z,8.11
2018-11-14T17:53:35.314Z,8.04
2018-11-14T17:58:35.154Z,7.90
2018-11-14T18:03:39.609Z,7.75
2018-11-14T18:08:44.521Z,7.83
2018-11-14T18:13:42.016Z,7.80
2018-11-14T18:18:39.418Z,7.65
2018-11-14T18:23:36.820Z,7.69
2018-11-14T18:28:34.220Z,7.58
2018-11-14T18:33:31.648Z,7.59
2018-11-14T18:38:29.083Z,7.59
2018-11-14T18:43:26.544Z,7.51
2018-11-14T18:48:24.008Z,7.45
2018-11-14T18:53:22.676Z,7.46
2018-11-14T18:58:20.835Z,7.45
2018-11-14T19:03:18.239Z,7.51
2018-11-14T19:08:15.636Z,7.45
2018-11-14T19:13:13.114Z,7.36
2018-11-14T19:18:10.551Z,7.43
2018-11-14T19:23:07.972Z,7.47
2018-11-14T19:28:05.612Z,7.42
2018-11-14T19:33:03.369Z,7.43
2018-11-14T19:38:01.079Z,7.42
2018-11-14T19:42:59.780Z,7.45
2018-11-14T19:47:57.300Z,7.47
2018-11-14T19:52:54.803Z,7.48
2018-11-14T19:57:53.719Z,7.43
2018-11-14T20:02:51.118Z,7.48
2018-11-14T20:07:48.563Z,7.36
2018-11-14T20:12:46.431Z,7.39
2018-11-14T20:17:44.636Z,7.32
2018-11-14T20:22:42.619Z,7.35
2018-11-14T20:27:40.395Z,7.23
2018-11-14T20:32:37.835Z,7.27
2018-11-14T20:37:35.363Z,7.23
2018-11-14T20:42:32.767Z,7.18
2018-11-14T20:47:30.349Z,7.04
2018-11-14T20:52:27.775Z,6.90
2018-11-14T20:57:25.191Z,6.91
2018-11-14T21:02:22.585Z,6.80
2018-11-14T21:07:20.032Z,6.83
2018-11-14T21:12:19.927Z,6.78
2018-11-14T21:17:19.927Z,6.65
2018-11-14T21:22:21.446Z,6.72
2018-11-14T21:27:20.411Z,6.80
2018-11-14T21:32:21.656Z,6.83
2018-11-14T21:37:22.020Z,6.67
2018-11-14T21:42:21.710Z,6.48
2018-11-14T21:47:26.789Z,6.58
2018-11-14T21:52:28.761Z,6.61
2018-11-14T21:57:28.471Z,6.56
2018-11-14T22:02:25.950Z,6.63
2018-11-14T22:07:23.350Z,6.59
2018-11-14T22:12:20.804Z,6.54
2018-11-14T22:17:18.271Z,6.50
2018-11-14T22:22:15.679Z,6.48
2018-11-14T22:27:13.072Z,6.51
2018-11-14T22:32:17.534Z,6.52
2018-11-14T22:37:19.382Z,6.69
2018-11-14T22:42:17.441Z,6.70
2018-11-14T22:47:14.884Z,6.74
2018-11-14T22:52:12.275Z,6.73
2018-11-14T22:57:09.671Z,6.80
2018-11-14T23:02:07.488Z,6.85
2018-11-14T23:07:04.983Z,6.84
2018-11-14T23:12:02.388Z,6.91
2018-11-14T23:16:59.819Z,6.92
2018-11-14T23:21:57.312Z,6.92
2018-11-14T23:26:54.716Z,6.81
2018-11-14T23:31:52.091Z,6.83
2018-11-14T23:36:49.491Z,6.84
2018-11-14T23:41:46.862Z,6.84
2018-11-14T23:46:44.251Z,6.60
2018-11-14T23:51:41.753Z,6.42
2018-11-14T23:56:39.206Z,6.43
